This is the latest recevied weather packets stored in our database for station/object WA2FTC. If no packets are shown the sender has not sent any weather packets the latest 1 day(s).
| Time | Temp. | Humidity | Pressure | Rain* | Wind** | Luminosity | Snow |
|---|---|---|---|---|---|---|---|
| 1836274729 | 23.33° C | 94% | 1015.1 hPa | 0 mm | 0 m/s | - | - |
| 1778033702 | - | - | 1014.9 hPa | 0 mm | 0 m/s | - | - |
| 1778032857 | 20.56° C | 77% | 1014.7 hPa | 0 mm | 0 m/s | - | - |
| 1778031961 | 21.11° C | 76% | 1014.7 hPa | 0 mm | 0 m/s | - | - |
| 1778031055 | 21.11° C | 74% | 1014.8 hPa | 0 mm | 0 m/s | - | - |
| 1778030158 | 21.67° C | 73% | 1014.8 hPa | 0 mm | 0 m/s | - | - |
| 1778029255 | 21.67° C | 72% | 1014.5 hPa | 0 mm | 0 m/s | - | - |
| 1778028384 | 22.22° C | 70% | 1014.4 hPa | 0 mm | 0 m/s | - | - |
| 1778027451 | 22.78° C | 69% | 1014.1 hPa | 0 mm | 0 m/s | - | - |
| 1778026551 | 23.33° C | 68% | 1014.2 hPa | 0 mm | 0 m/s | - | - |
| 1778025647 | 23.89° C | 66% | 1014 hPa | 0 mm | 0 m/s | - | - |
| 1778024769 | 25° C | 65% | 1013.9 hPa | 0 mm | 0 m/s | - | - |
| 1778023846 | 25.56° C | 62% | 1013.9 hPa | 0 mm | 0 m/s | - | - |
| 1778022949 | 26.11° C | 60% | 1013.8 hPa | 0 mm | 0 m/s | - | - |
| 1778022016 | 26.67° C | 60% | 1013.9 hPa | 0 mm | 0 m/s | - | - |
| 1778021121 | 27.78° C | 59% | 1013.9 hPa | 0 mm | 0 m/s | - | - |
| 1778020216 | 28.33° C | 57% | 1013.8 hPa | 0 mm | 0 m/s | - | - |
| 1778019311 | 28.89° C | 55% | 1014 hPa | 0 mm | 0 m/s | - | - |
| 1778018412 | 30.56° C | 52% | 1013.9 hPa | 0 mm | 0 m/s | - | - |
| 1778017510 | 32.78° C | 49% | 1013.7 hPa | 0 mm | 0 m/s | - | - |
| 1778016607 | 32.78° C | 49% | 1013.8 hPa | 0 mm | 0 m/s | - | - |
| 1778015708 | 33.33° C | 47% | 1013.7 hPa | 0 mm | 0 m/s | - | - |
| 1778014810 | 34.44° C | 45% | 1013.7 hPa | 0 mm | 0 m/s | - | - |
| 1778013907 | 35° C | 47% | 1013.5 hPa | 0 mm | 0 m/s | - | - |
| 1778013003 | 33.89° C | 49% | 1013.5 hPa | 0 mm | 0 m/s | - | - |
* Rain latest hour (hover to see other rain measurements)
** Current wind speed in m/s (hover to see current wind gust speed)